createdAt,value
2019-05-29T00:04:31.503Z,23.12
2019-05-29T00:09:35.529Z,23.14
2019-05-29T00:14:39.581Z,23.09
2019-05-29T00:19:43.717Z,23.09
2019-05-29T00:24:47.898Z,23.05
2019-05-29T00:29:51.958Z,23.02
2019-05-29T00:34:56.087Z,22.98
2019-05-29T00:40:00.199Z,22.98
2019-05-29T00:45:04.786Z,22.94
2019-05-29T00:50:09.904Z,22.92
2019-05-29T00:55:14.694Z,22.89
2019-05-29T01:00:19.476Z,22.89
2019-05-29T01:05:23.692Z,22.89
2019-05-29T01:10:28.008Z,22.84
2019-05-29T01:15:32.042Z,22.74
2019-05-29T01:20:36.146Z,22.80
2019-05-29T01:25:40.266Z,22.80
2019-05-29T01:30:44.366Z,22.69
2019-05-29T01:35:48.421Z,22.74
2019-05-29T01:40:52.533Z,22.73
2019-05-29T01:45:56.717Z,22.73
2019-05-29T01:51:00.848Z,22.70
2019-05-29T01:56:04.979Z,22.69
2019-05-29T02:01:09.102Z,22.69
2019-05-29T02:06:13.212Z,22.66
2019-05-29T02:11:17.242Z,22.65
2019-05-29T02:16:22.635Z,22.64
2019-05-29T02:21:26.771Z,22.63
2019-05-29T02:26:30.850Z,22.62
2019-05-29T02:31:35.027Z,22.53
2019-05-29T02:36:39.105Z,22.53
2019-05-29T02:41:43.134Z,22.59
2019-05-29T02:46:47.166Z,22.59
2019-05-29T02:51:51.284Z,22.59
2019-05-29T02:56:55.309Z,22.59
2019-05-29T03:01:59.338Z,22.58
2019-05-29T03:07:03.621Z,22.56
2019-05-29T03:12:07.625Z,22.45
2019-05-29T03:17:11.834Z,22.45
2019-05-29T03:22:15.867Z,22.51
2019-05-29T03:27:19.870Z,22.48
2019-05-29T03:32:23.929Z,22.39
2019-05-29T03:37:28.276Z,22.46
2019-05-29T03:42:32.662Z,22.45
2019-05-29T03:47:37.232Z,22.45
2019-05-29T03:52:41.537Z,22.46
2019-05-29T03:57:45.567Z,22.40
2019-05-29T04:02:49.582Z,22.32
2019-05-29T04:07:53.665Z,22.32
2019-05-29T04:12:59.357Z,22.36
2019-05-29T04:18:04.853Z,22.35
2019-05-29T04:23:09.226Z,22.34
2019-05-29T04:28:13.337Z,22.34
2019-05-29T04:33:17.367Z,22.34
2019-05-29T04:38:21.404Z,22.33
2019-05-29T04:43:25.434Z,22.30
2019-05-29T04:48:31.373Z,22.30
2019-05-29T04:53:35.595Z,22.28
2019-05-29T04:58:40.005Z,22.19
2019-05-29T05:03:44.094Z,22.26
2019-05-29T05:08:48.136Z,22.26
2019-05-29T05:13:52.248Z,22.25
2019-05-29T05:18:56.275Z,22.25
2019-05-29T05:24:00.320Z,22.25
2019-05-29T05:29:04.476Z,22.24
2019-05-29T05:34:08.673Z,22.24
2019-05-29T05:39:12.776Z,22.23
2019-05-29T05:44:16.794Z,22.24
2019-05-29T05:49:20.881Z,22.14
2019-05-29T05:54:24.971Z,22.22
2019-05-29T05:59:29.008Z,22.22
2019-05-29T06:04:33.817Z,22.22
2019-05-29T06:09:38.262Z,22.22
2019-05-29T06:14:42.754Z,22.22
2019-05-29T06:19:46.868Z,22.12
2019-05-29T06:24:50.890Z,22.22
2019-05-29T06:29:54.944Z,22.20
2019-05-29T06:34:58.944Z,22.20
2019-05-29T06:40:03.054Z,22.20
2019-05-29T06:45:08.309Z,22.18
2019-05-29T06:50:12.938Z,22.18
2019-05-29T06:55:17.036Z,22.17
2019-05-29T07:00:34.815Z,22.17
2019-05-29T07:05:27.113Z,22.20
2019-05-29T07:10:31.274Z,22.20
2019-05-29T07:15:36.460Z,19.66
2019-05-29T07:20:40.736Z,19.66
2019-05-29T07:25:45.719Z,18.87
2019-05-29T07:31:00.138Z,18.69
2019-05-29T07:35:55.882Z,18.54
2019-05-29T07:41:00.010Z,18.21
2019-05-29T07:46:04.201Z,18.21
2019-05-29T07:51:08.229Z,17.88
2019-05-29T07:56:22.255Z,17.88
2019-05-29T08:01:18.348Z,17.87
2019-05-29T08:06:22.422Z,18.04
2019-05-29T08:11:26.557Z,18.04
2019-05-29T08:16:30.602Z,17.55
2019-05-29T08:21:34.620Z,17.48
2019-05-29T08:26:38.652Z,17.73
2019-05-29T08:31:42.805Z,17.47
2019-05-29T08:37:00.890Z,17.47
2019-05-29T08:42:18.104Z,17.87
2019-05-29T08:47:09.499Z,18.35
2019-05-29T08:52:11.705Z,17.01
2019-05-29T08:57:12.111Z,17.12
2019-05-29T09:02:16.134Z,16.70
2019-05-29T09:07:20.218Z,17.71
2019-05-29T09:12:24.311Z,18.45
2019-05-29T09:17:28.493Z,18.45
2019-05-29T09:22:32.593Z,17.22
2019-05-29T09:27:36.626Z,16.89
2019-05-29T09:32:50.549Z,17.26
2019-05-29T09:37:46.480Z,17.26
2019-05-29T09:42:50.591Z,16.67
2019-05-29T09:47:54.642Z,17.40
2019-05-29T09:53:00.290Z,16.62
2019-05-29T09:58:09.280Z,16.62
2019-05-29T10:03:13.487Z,17.01
2019-05-29T10:08:17.774Z,17.80
2019-05-29T10:13:22.329Z,17.71
2019-05-29T10:18:32.518Z,18.88
2019-05-29T10:23:32.358Z,19.38
2019-05-29T10:28:50.167Z,19.59
2019-05-29T10:33:42.491Z,19.72
2019-05-29T10:38:46.600Z,19.86
2019-05-29T10:43:51.335Z,19.89
2019-05-29T10:48:56.618Z,19.99
2019-05-29T10:54:00.998Z,20.15
2019-05-29T10:59:05.343Z,20.32
2019-05-29T11:04:09.513Z,20.42
2019-05-29T11:09:16.516Z,20.39
2019-05-29T11:14:20.554Z,20.47
2019-05-29T11:19:26.166Z,20.45
2019-05-29T11:24:30.447Z,20.67
2019-05-29T11:29:34.576Z,20.72
2019-05-29T11:34:38.634Z,20.75
2019-05-29T11:39:42.663Z,20.75
2019-05-29T11:44:46.791Z,20.83
2019-05-29T11:49:51.006Z,20.89
2019-05-29T11:54:58.003Z,20.72
2019-05-29T12:00:09.495Z,20.72
2019-05-29T12:05:07.953Z,20.91
2019-05-29T12:10:13.931Z,20.99
2019-05-29T12:15:20.826Z,21.01
2019-05-29T12:20:27.960Z,21.08
2019-05-29T12:25:30.804Z,21.04
2019-05-29T12:30:35.203Z,21.12
2019-05-29T12:35:39.229Z,21.14
2019-05-29T12:40:43.554Z,21.20
2019-05-29T12:45:47.676Z,21.15
2019-05-29T12:50:53.854Z,21.14
2019-05-29T12:55:58.371Z,21.32
2019-05-29T13:01:03.066Z,21.44
2019-05-29T13:06:08.580Z,21.44
2019-05-29T13:11:12.625Z,21.40
2019-05-29T13:16:16.660Z,21.59
2019-05-29T13:21:20.746Z,21.75
2019-05-29T13:26:24.971Z,21.56
2019-05-29T13:31:29.062Z,21.66
2019-05-29T13:36:33.120Z,21.62
2019-05-29T13:41:37.132Z,21.62
2019-05-29T13:46:41.151Z,21.73
2019-05-29T13:51:45.159Z,21.75
2019-05-29T13:56:49.321Z,21.80
2019-05-29T14:01:53.369Z,21.78
2019-05-29T14:06:58.574Z,21.79
2019-05-29T14:12:03.107Z,21.72
2019-05-29T14:17:08.660Z,21.72
2019-05-29T14:22:14.944Z,21.73
2019-05-29T14:27:18.701Z,21.81
2019-05-29T14:32:22.702Z,21.91
2019-05-29T14:37:26.727Z,22.02
2019-05-29T14:42:30.906Z,21.98
2019-05-29T14:47:34.997Z,22.02
2019-05-29T14:52:39.057Z,22.02
2019-05-29T14:57:43.075Z,22.09
2019-05-29T15:02:47.143Z,22.16
2019-05-29T15:07:51.359Z,22.22
2019-05-29T15:12:58.246Z,22.31
2019-05-29T15:18:01.527Z,22.26
2019-05-29T15:23:07.405Z,22.32
2019-05-29T15:28:13.610Z,22.40
2019-05-29T15:33:17.821Z,22.40
2019-05-29T15:38:22.109Z,22.47
2019-05-29T15:43:26.530Z,22.70
2019-05-29T15:48:30.864Z,22.78
2019-05-29T15:53:35.289Z,22.83
2019-05-29T15:58:39.565Z,22.91
2019-05-29T16:03:43.638Z,23.19
2019-05-29T16:08:47.794Z,23.19
2019-05-29T16:13:52.238Z,23.12
2019-05-29T16:18:56.748Z,22.92
2019-05-29T16:24:01.034Z,22.96
2019-05-29T16:29:05.333Z,23.11
2019-05-29T16:34:09.575Z,23.11
2019-05-29T16:39:13.686Z,23.29
2019-05-29T16:44:18.201Z,23.22
2019-05-29T16:49:23.088Z,23.29
2019-05-29T16:54:27.285Z,23.37
2019-05-29T16:59:31.371Z,23.42
2019-05-29T17:04:35.399Z,23.42
2019-05-29T17:09:39.431Z,23.42
2019-05-29T17:14:43.456Z,23.30
2019-05-29T17:19:47.496Z,23.34
2019-05-29T17:24:51.530Z,23.33
2019-05-29T17:29:55.560Z,23.37
2019-05-29T17:34:59.627Z,23.37
2019-05-29T17:40:04.008Z,23.39
2019-05-29T17:45:08.959Z,23.34
2019-05-29T17:50:18.011Z,23.37
2019-05-29T17:55:21.822Z,23.37
2019-05-29T18:00:26.739Z,23.26
2019-05-29T18:05:30.851Z,23.26
2019-05-29T18:10:35.006Z,23.39
2019-05-29T18:15:39.033Z,23.41
2019-05-29T18:20:43.138Z,23.38
2019-05-29T18:25:47.369Z,23.33
2019-05-29T18:30:51.390Z,23.42
2019-05-29T18:35:55.487Z,23.42
2019-05-29T18:40:59.605Z,23.44
2019-05-29T18:46:03.626Z,23.43
2019-05-29T18:51:07.710Z,23.41
2019-05-29T18:56:11.814Z,23.41
2019-05-29T19:01:16.157Z,23.39
2019-05-29T19:06:21.430Z,23.31
2019-05-29T19:11:25.927Z,23.31
2019-05-29T19:16:30.140Z,23.34
2019-05-29T19:21:34.155Z,23.38
2019-05-29T19:26:38.173Z,23.37
2019-05-29T19:31:42.684Z,23.35
2019-05-29T19:36:46.786Z,23.26
2019-05-29T19:41:50.794Z,23.32
2019-05-29T19:46:54.847Z,23.31
2019-05-29T19:51:58.978Z,23.22
2019-05-29T19:57:02.980Z,23.28
2019-05-29T20:02:07.757Z,23.29
2019-05-29T20:07:14.969Z,23.33
2019-05-29T20:12:18.981Z,23.33
2019-05-29T20:17:23.046Z,23.29
2019-05-29T20:22:28.464Z,23.29
2019-05-29T20:27:32.644Z,23.27
2019-05-29T20:32:36.875Z,23.34
2019-05-29T20:37:41.021Z,23.18
2019-05-29T20:42:46.161Z,23.27
2019-05-29T20:47:50.179Z,23.26
2019-05-29T20:52:54.298Z,23.25
2019-05-29T20:57:58.315Z,23.25
2019-05-29T21:03:02.323Z,23.23
2019-05-29T21:08:06.418Z,23.24
2019-05-29T21:13:10.435Z,23.25
2019-05-29T21:18:14.578Z,23.23
2019-05-29T21:23:18.626Z,23.23
2019-05-29T21:28:22.768Z,23.16
2019-05-29T21:33:26.761Z,23.23
2019-05-29T21:38:30.796Z,23.22
2019-05-29T21:43:34.825Z,23.15
2019-05-29T21:48:39.019Z,23.14
2019-05-29T21:53:43.440Z,23.23
2019-05-29T21:59:00.162Z,23.22
2019-05-29T22:03:53.605Z,23.14
2019-05-29T22:08:57.848Z,23.22
2019-05-29T22:14:01.983Z,23.23
2019-05-29T22:19:06.299Z,23.23
2019-05-29T22:24:10.689Z,23.30
2019-05-29T22:29:18.265Z,23.30
2019-05-29T22:34:20.515Z,23.33
2019-05-29T22:39:24.799Z,23.27
2019-05-29T22:44:29.023Z,23.27
2019-05-29T22:49:33.294Z,23.28
2019-05-29T22:54:37.355Z,23.27
2019-05-29T22:59:41.481Z,23.28
2019-05-29T23:04:45.614Z,23.28
2019-05-29T23:09:49.812Z,23.30
2019-05-29T23:14:54.433Z,23.30
2019-05-29T23:19:58.734Z,23.23
2019-05-29T23:25:03.299Z,23.32
2019-05-29T23:30:08.246Z,23.32
2019-05-29T23:35:12.549Z,23.25
2019-05-29T23:40:16.862Z,23.31
2019-05-29T23:45:20.975Z,23.31
2019-05-29T23:50:24.991Z,23.30
2019-05-29T23:55:29.064Z,23.30
